This is the latest recevied weather packets stored in our database for station/object OH2HCY-3. If no packets are shown the sender has not sent any weather packets the latest 10 day(s).
| Time | Temp. | Humidity | Pressure | Rain* | Wind** | Luminosity | Snow |
|---|---|---|---|---|---|---|---|
| 1788598274 | 14.44° C | 69% | 995 hPa | - | - | - | - |
| 1788597273 | 13.33° C | 75% | 994.9 hPa | - | - | - | - |
| 1788596168 | 12.78° C | 78% | 994.9 hPa | - | - | - | - |
| 1788594979 | 12.78° C | 80% | 994.7 hPa | - | - | - | - |
| 1788593993 | 12.22° C | 82% | 994.7 hPa | - | - | - | - |
| 1788592983 | 12.22° C | 89% | 994.5 hPa | - | - | - | - |
| 1788590743 | 11.11° C | 92% | 994.4 hPa | - | - | - | - |
| 1788589768 | 11.11° C | 92% | 994.3 hPa | - | - | - | - |
| 1788588573 | 11.11° C | 92% | 994.2 hPa | - | - | - | - |
| 1788587558 | 10.56° C | 92% | 994.1 hPa | - | - | - | - |
| 1788565080 | 7.78° C | 91% | 994.4 hPa | - | - | - | - |
| 1788565078 | 7.78° C | 91% | 994.4 hPa | - | - | - | - |
| 1788560918 | 9.44° C | 91% | 994.7 hPa | - | - | - | - |
| 1788547583 | 10° C | 89% | 996.5 hPa | - | - | - | - |
| 1788546413 | 10.56° C | 89% | 996.8 hPa | - | - | - | - |
| 1788543348 | 11.67° C | 86% | 997 hPa | - | - | - | - |
| 1788540259 | 13.89° C | 77% | 997.1 hPa | - | - | - | - |
| 1788538157 | 15.56° C | 68% | 997.2 hPa | - | - | - | - |
| 1788536003 | 16.67° C | 62% | 997.5 hPa | - | - | - | - |
| 1788534861 | 16.67° C | 63% | - | - | - | - | - |
| 1788533792 | 16.67° C | 59% | 997.5 hPa | - | - | - | - |
| 1788532788 | 17.22° C | 62% | 997.5 hPa | - | - | - | - |
| 1788528703 | 16.11° C | 66% | 997.9 hPa | - | - | - | - |
| 1788526528 | 16.67° C | 58% | 998 hPa | - | - | - | - |
| 1788524593 | 16.67° C | 56% | 998 hPa | - | - | - | - |
* Rain since midnight (hover to see other rain measurements)
** Current wind speed in m/s (hover to see current wind gust speed)